Time;durP1;ratioP1;P1;durP2;ratioP2;P2;SDS_P1;SDS_P2;PMS_P1;PMS_P2;Temp;Humidity;BMP_temperature;BMP_pressure;BME280_temperature;BME280_humidity;BME280_pressure;Samples;Min_cycle;Max_cycle;Signal;HPM_P1;HPM_P2
2023/06/24 00:01:41;;;;;;;6.93;3.88;;;20.20;99.90;;;;;;5049574;28;20041;-58
2023/06/24 00:04:08;;;;;;;7.40;3.67;;;20.20;99.90;;;;;;5067384;28;20731;-58
2023/06/24 00:06:36;;;;;;;7.35;3.80;;;20.20;99.90;;;;;;5066616;28;20048;-58
2023/06/24 00:09:04;;;;;;;5.70;3.33;;;20.20;99.90;;;;;;5064783;28;20082;-58
2023/06/24 00:11:30;;;;;;;5.72;3.15;;;20.10;99.90;;;;;;5066571;28;20055;-59
2023/06/24 00:13:57;;;;;;;6.40;3.83;;;20.00;99.90;;;;;;5067540;28;20049;-59
2023/06/24 00:16:27;;;;;;;9.70;4.20;;;20.00;99.90;;;;;;5066616;28;20072;-59
2023/06/24 00:18:58;;;;;;;6.40;3.90;;;20.00;99.90;;;;;;5067166;28;20080;-59
2023/06/24 00:21:29;;;;;;;5.43;3.47;;;19.90;99.90;;;;;;5066381;28;20043;-60
2023/06/24 00:23:57;;;;;;;3.95;3.47;;;19.90;99.90;;;;;;5050320;28;20088;-59
2023/06/24 00:26:25;;;;;;;6.05;3.88;;;19.80;99.90;;;;;;5066844;28;20123;-60
2023/06/24 00:28:51;;;;;;;7.22;4.22;;;19.80;99.90;;;;;;5049833;28;20048;-59
2023/06/24 00:31:19;;;;;;;6.82;3.65;;;19.80;99.90;;;;;;5070186;28;20499;-59
2023/06/24 00:33:46;;;;;;;8.02;4.13;;;19.80;99.90;;;;;;5071402;28;20165;-60
2023/06/24 00:36:13;;;;;;;5.60;3.45;;;19.80;99.90;;;;;;5070664;28;20044;-60
2023/06/24 00:38:40;;;;;;;5.30;3.67;;;19.80;99.90;;;;;;5070846;28;20056;-60
2023/06/24 00:41:07;;;;;;;5.95;3.42;;;19.70;99.90;;;;;;5071000;28;20045;-60
2023/06/24 00:43:34;;;;;;;6.10;4.03;;;19.70;99.90;;;;;;5070493;28;20110;-60
2023/06/24 00:46:01;;;;;;;4.93;3.80;;;19.70;99.90;;;;;;5070698;28;20044;-60
2023/06/24 00:48:28;;;;;;;5.20;2.97;;;19.70;99.90;;;;;;5070481;28;20044;-59
2023/06/24 00:50:58;;;;;;;9.20;3.95;;;19.70;99.90;;;;;;5036343;28;20044;-60
2023/06/24 00:53:25;;;;;;;6.13;3.85;;;19.70;99.90;;;;;;5052527;28;20049;-59
2023/06/24 00:55:52;;;;;;;6.20;3.60;;;19.60;99.90;;;;;;5070561;28;20433;-60
2023/06/24 00:58:20;;;;;;;9.65;3.78;;;19.50;99.90;;;;;;5034841;28;20102;-60
2023/06/24 01:00:56;;;;;;;8.50;4.40;;;19.50;99.90;;;;;;5070066;28;20052;-60
2023/06/24 01:03:25;;;;;;;6.72;3.85;;;19.50;99.90;;;;;;4718805;28;10001598;-58
2023/06/24 01:05:53;;;;;;;5.25;3.30;;;19.60;99.90;;;;;;5070639;28;20097;-60
2023/06/24 01:08:23;;;;;;;7.45;4.30;;;19.50;99.90;;;;;;5069807;28;20515;-59
2023/06/24 01:10:53;;;;;;;6.18;4.07;;;19.40;99.90;;;;;;5053402;28;20048;-59
2023/06/24 01:13:20;;;;;;;5.97;4.32;;;19.40;99.90;;;;;;5069857;28;20063;-60
2023/06/24 01:15:47;;;;;;;4.40;3.05;;;19.30;99.90;;;;;;5052803;28;20056;-60
2023/06/24 01:18:24;;;;;;;5.30;3.97;;;19.30;99.90;;;;;;5069669;28;20411;-60
2023/06/24 01:21:16;;;;;;;7.93;3.60;;;19.20;99.90;;;;;;5052715;28;20041;-60
2023/06/24 01:23:54;;;;;;;4.80;3.50;;;19.30;99.90;;;;;;5011673;28;20056;-60
2023/06/24 01:26:21;;;;;;;7.75;3.95;;;19.30;99.90;;;;;;5044967;28;20055;-61
2023/06/24 01:29:30;;;;;;;9.70;3.88;;;19.30;99.90;;;;;;5069867;28;20642;-61
2023/06/24 01:31:59;;;;;;;6.85;3.90;;;19.30;99.90;;;;;;5050974;28;20049;-60
2023/06/24 01:34:48;;;;;;;5.95;3.90;;;19.30;99.90;;;;;;5032031;28;20045;-59
2023/06/24 01:37:38;;;;;;;6.60;3.95;;;19.20;99.90;;;;;;5051961;28;20052;-61
2023/06/24 01:40:14;;;;;;;7.25;4.40;;;19.20;99.90;;;;;;5054764;28;20052;-60
2023/06/24 01:42:42;;;;;;;7.18;4.00;;;19.20;99.90;;;;;;5052219;28;20052;-60
2023/06/24 01:45:12;;;;;;;7.20;5.05;;;19.20;99.90;;;;;;5032098;28;20045;-60
2023/06/24 01:47:40;;;;;;;7.10;4.03;;;19.10;99.90;;;;;;5050843;28;20052;-60
2023/06/24 01:50:08;;;;;;;6.50;3.88;;;19.10;99.90;;;;;;5051859;28;20082;-59
2023/06/24 01:52:35;;;;;;;5.95;3.78;;;19.10;99.90;;;;;;5051806;28;20159;-59
2023/06/24 01:55:02;;;;;;;8.35;4.57;;;19.10;99.90;;;;;;5068532;28;20076;-59
2023/06/24 01:57:29;;;;;;;7.45;4.32;;;19.00;99.90;;;;;;5052012;28;20501;-60
2023/06/24 01:59:56;;;;;;;7.47;5.18;;;18.90;99.90;;;;;;5035375;28;20123;-59
2023/06/24 02:02:22;;;;;;;7.40;4.30;;;18.90;99.90;;;;;;5051917;28;20106;-60
2023/06/24 02:04:50;;;;;;;6.53;4.30;;;18.90;99.90;;;;;;5035440;28;20561;-59
2023/06/24 02:07:17;;;;;;;5.30;3.95;;;18.90;99.90;;;;;;5035296;28;20058;-59
2023/06/24 02:09:44;;;;;;;8.05;4.30;;;18.80;99.90;;;;;;5035176;28;20080;-59
2023/06/24 02:12:10;;;;;;;7.35;4.60;;;18.80;99.90;;;;;;5052085;28;20067;-59
2023/06/24 02:14:37;;;;;;;12.40;5.15;;;18.80;99.90;;;;;;5032886;28;20110;-59
2023/06/24 02:17:05;;;;;;;7.05;4.45;;;18.70;99.90;;;;;;5052093;28;20048;-59
2023/06/24 02:19:32;;;;;;;7.40;4.70;;;18.70;99.90;;;;;;5070319;28;20059;-59
2023/06/24 02:21:59;;;;;;;7.65;4.70;;;18.70;99.90;;;;;;5069295;28;20060;-59
2023/06/24 02:24:27;;;;;;;7.18;4.95;;;18.50;99.90;;;;;;5032931;28;20049;-59
2023/06/24 02:26:56;;;;;;;8.52;5.10;;;18.50;99.90;;;;;;5051387;28;20416;-60
2023/06/24 02:29:22;;;;;;;8.35;4.22;;;18.40;99.90;;;;;;5068895;28;20048;-60
2023/06/24 02:31:49;;;;;;;6.47;4.25;;;18.50;99.90;;;;;;5029826;28;20056;-58
2023/06/24 02:34:16;;;;;;;6.78;4.53;;;18.50;99.90;;;;;;5068592;28;20098;-60
2023/06/24 02:36:43;;;;;;;6.45;5.20;;;18.50;99.90;;;;;;5050810;28;20049;-60
2023/06/24 02:39:10;;;;;;;8.25;4.70;;;18.50;99.90;;;;;;5051074;28;20044;-60
2023/06/24 02:41:36;;;;;;;5.90;3.92;;;18.50;99.90;;;;;;5050825;28;20060;-59
2023/06/24 02:44:03;;;;;;;7.47;4.40;;;18.50;99.90;;;;;;5068848;28;20139;-59
2023/06/24 02:46:30;;;;;;;6.63;5.07;;;18.50;99.90;;;;;;5067829;28;20451;-59
2023/06/24 02:48:57;;;;;;;6.00;4.10;;;18.50;99.90;;;;;;5068989;28;20117;-59
2023/06/24 02:51:25;;;;;;;7.20;5.20;;;18.40;99.90;;;;;;5068018;28;20048;-59
2023/06/24 02:53:52;;;;;;;8.30;5.30;;;18.30;99.90;;;;;;5051034;28;20056;-60
2023/06/24 02:56:20;;;;;;;8.15;5.28;;;18.30;99.90;;;;;;5046341;28;20033;-59
2023/06/24 02:58:48;;;;;;;8.10;5.57;;;18.30;99.90;;;;;;5051338;28;20044;-59
2023/06/24 03:01:15;;;;;;;9.35;4.82;;;18.20;99.90;;;;;;5034091;28;20091;-60
2023/06/24 03:03:42;;;;;;;13.23;5.32;;;18.20;99.90;;;;;;5050892;28;20056;-59
2023/06/24 03:06:12;;;;;;;8.00;4.35;;;18.10;99.90;;;;;;5068460;28;20134;-60
2023/06/24 03:08:39;;;;;;;5.13;4.60;;;18.10;99.90;;;;;;5051204;28;20044;-60
2023/06/24 03:11:06;;;;;;;9.23;5.53;;;18.20;99.90;;;;;;5050829;28;20060;-59
2023/06/24 03:13:33;;;;;;;10.38;5.05;;;18.10;99.90;;;;;;5065425;28;20488;-59
2023/06/24 03:15:59;;;;;;;10.13;6.03;;;18.10;99.90;;;;;;5053917;28;20048;-59
2023/06/24 03:18:26;;;;;;;7.18;5.28;;;18.00;99.90;;;;;;5067224;28;20044;-59
2023/06/24 03:20:53;;;;;;;12.80;5.10;;;18.00;99.90;;;;;;5068182;28;20493;-58
2023/06/24 03:23:20;;;;;;;10.25;5.97;;;18.10;99.90;;;;;;5049938;28;20049;-58
2023/06/24 03:25:47;;;;;;;7.30;5.20;;;18.00;99.90;;;;;;5068065;28;20058;-59
2023/06/24 03:28:13;;;;;;;10.57;5.53;;;18.00;99.90;;;;;;5067670;28;20052;-58
2023/06/24 03:30:40;;;;;;;8.35;5.57;;;18.00;99.90;;;;;;5065482;28;20048;-58
2023/06/24 03:33:07;;;;;;;9.68;6.03;;;17.90;99.90;;;;;;5049778;28;20483;-58
2023/06/24 03:35:34;;;;;;;10.13;6.30;;;17.90;99.90;;;;;;5067926;28;20052;-59
2023/06/24 03:38:01;;;;;;;7.95;5.63;;;17.90;99.90;;;;;;5067671;28;20075;-58
2023/06/24 03:40:28;;;;;;;8.93;5.80;;;17.90;99.90;;;;;;5068068;28;20056;-59
2023/06/24 03:42:55;;;;;;;8.45;6.10;;;17.90;99.90;;;;;;5067807;28;20040;-59
2023/06/24 03:45:22;;;;;;;9.27;6.45;;;17.90;99.90;;;;;;5067709;28;20052;-59
2023/06/24 03:47:49;;;;;;;11.98;6.38;;;17.70;99.90;;;;;;5067438;28;20044;-59
2023/06/24 03:50:16;;;;;;;10.23;6.70;;;17.60;99.90;;;;;;5063978;28;20047;-59
2023/06/24 03:52:44;;;;;;;13.40;7.25;;;17.70;99.90;;;;;;5068594;28;20050;-59
2023/06/24 03:55:11;;;;;;;11.65;6.13;;;17.70;99.90;;;;;;5067826;28;20066;-58
2023/06/24 03:57:37;;;;;;;12.75;7.25;;;17.70;99.90;;;;;;5067516;28;20511;-59
2023/06/24 04:00:20;;;;;;;10.43;7.65;;;17.60;99.90;;;;;;5066740;28;20049;-59
2023/06/24 04:02:47;;;;;;;9.30;7.25;;;17.60;99.90;;;;;;5066556;28;20503;-59
2023/06/24 04:05:14;;;;;;;12.77;7.78;;;17.50;99.90;;;;;;5059498;28;20044;-59
2023/06/24 04:07:41;;;;;;;13.88;9.35;;;17.50;99.90;;;;;;5053651;28;20055;-58
2023/06/24 04:10:10;;;;;;;15.23;9.75;;;17.50;99.90;;;;;;5071788;28;20056;-58
2023/06/24 04:12:37;;;;;;;11.30;8.65;;;17.50;99.90;;;;;;5071654;28;20051;-59
2023/06/24 04:15:05;;;;;;;13.38;8.73;;;17.50;99.90;;;;;;5071684;28;20102;-58
2023/06/24 04:17:31;;;;;;;15.70;9.50;;;17.50;99.90;;;;;;5071511;28;20044;-58
2023/06/24 04:19:58;;;;;;;11.68;8.63;;;17.50;99.90;;;;;;5071497;28;20049;-60
2023/06/24 04:22:25;;;;;;;10.75;8.48;;;17.50;99.90;;;;;;5071228;28;20055;-60
2023/06/24 04:24:52;;;;;;;14.95;9.85;;;17.50;99.90;;;;;;5071139;28;20044;-60
2023/06/24 04:27:19;;;;;;;12.43;9.82;;;17.50;99.90;;;;;;5071394;28;20041;-60
2023/06/24 04:29:46;;;;;;;14.90;9.32;;;17.40;99.90;;;;;;5071011;28;20045;-60
2023/06/24 04:32:13;;;;;;;13.88;9.70;;;17.40;99.90;;;;;;5071775;28;20680;-60
2023/06/24 04:34:40;;;;;;;14.40;9.50;;;17.40;99.90;;;;;;5071046;28;20419;-60
2023/06/24 04:37:07;;;;;;;14.15;10.70;;;17.40;99.90;;;;;;5071394;28;20044;-60
2023/06/24 04:39:34;;;;;;;18.75;11.60;;;17.40;99.90;;;;;;5070746;28;20044;-60
2023/06/24 04:42:00;;;;;;;17.48;10.93;;;17.50;99.90;;;;;;5071262;28;20040;-59
2023/06/24 04:44:27;;;;;;;16.90;11.52;;;17.50;99.90;;;;;;5070835;28;20059;-61
2023/06/24 04:46:54;;;;;;;18.73;10.40;;;17.50;99.90;;;;;;5071018;28;20098;-59
2023/06/24 04:49:21;;;;;;;15.95;11.60;;;17.60;99.90;;;;;;5070908;28;20051;-59
2023/06/24 04:51:48;;;;;;;18.42;12.10;;;17.70;99.90;;;;;;5053437;28;20059;-58
2023/06/24 04:54:15;;;;;;;17.58;12.48;;;17.70;99.90;;;;;;5071468;28;20048;-59
2023/06/24 04:56:41;;;;;;;18.42;12.88;;;17.70;99.90;;;;;;5070934;28;20048;-58
2023/06/24 04:59:08;;;;;;;17.63;12.15;;;17.70;99.90;;;;;;5071664;28;20722;-59
2023/06/24 05:01:35;;;;;;;20.67;11.55;;;17.80;99.90;;;;;;5067052;28;20049;-59
2023/06/24 05:04:02;;;;;;;20.15;13.13;;;17.80;99.90;;;;;;5065287;28;20048;-59
2023/06/24 05:06:29;;;;;;;15.25;11.20;;;17.90;99.90;;;;;;5070042;28;20506;-59
2023/06/24 05:08:56;;;;;;;17.85;12.13;;;17.90;99.90;;;;;;5070815;28;20051;-60
2023/06/24 05:11:23;;;;;;;16.08;11.57;;;17.90;99.90;;;;;;5070102;28;20044;-59
2023/06/24 05:13:50;;;;;;;17.52;12.13;;;17.90;99.90;;;;;;5068079;28;20123;-60
2023/06/24 05:16:16;;;;;;;16.10;11.65;;;18.00;99.90;;;;;;5069790;28;20102;-60
2023/06/24 05:18:45;;;;;;;17.20;11.88;;;17.90;99.90;;;;;;5070499;28;20059;-60
2023/06/24 05:21:11;;;;;;;18.05;11.75;;;18.00;99.90;;;;;;5068851;28;20052;-60
2023/06/24 05:23:38;;;;;;;14.48;11.07;;;18.10;99.90;;;;;;5070416;28;20064;-60
2023/06/24 05:26:08;;;;;;;19.10;11.75;;;18.10;99.90;;;;;;5070013;28;20044;-60
2023/06/24 05:28:35;;;;;;;14.32;10.95;;;18.20;99.90;;;;;;5070194;28;20051;-61
2023/06/24 05:31:02;;;;;;;18.33;11.98;;;18.20;99.90;;;;;;5085690;28;20054;-60
2023/06/24 05:33:28;;;;;;;18.25;10.93;;;18.30;99.90;;;;;;5049584;28;20045;-60
2023/06/24 05:35:55;;;;;;;14.15;10.98;;;18.40;99.90;;;;;;5070003;28;20053;-59
2023/06/24 05:38:22;;;;;;;16.77;10.23;;;18.40;99.90;;;;;;5069646;28;20127;-59
2023/06/24 05:40:49;;;;;;;14.02;9.20;;;18.40;99.90;;;;;;5069716;28;20499;-61
2023/06/24 05:43:16;;;;;;;9.75;8.05;;;18.50;99.90;;;;;;5052268;28;20051;-60
2023/06/24 05:45:43;;;;;;;14.27;9.45;;;18.50;99.90;;;;;;5070779;28;20052;-60
2023/06/24 05:48:10;;;;;;;8.07;6.90;;;18.50;99.90;;;;;;5071185;28;20041;-61
2023/06/24 05:50:36;;;;;;;9.23;7.35;;;18.50;99.90;;;;;;5069614;28;20495;-60
2023/06/24 05:53:03;;;;;;;14.43;7.65;;;18.50;99.90;;;;;;5069718;28;20097;-61
2023/06/24 05:55:30;;;;;;;8.48;7.32;;;18.50;99.90;;;;;;5069898;28;20500;-60
2023/06/24 05:57:57;;;;;;;12.93;7.75;;;18.60;99.90;;;;;;5070372;28;20044;-60
2023/06/24 06:00:24;;;;;;;8.30;7.00;;;18.60;99.90;;;;;;5050319;28;20040;-61
2023/06/24 06:02:51;;;;;;;9.45;6.80;;;18.70;99.90;;;;;;5066922;28;20041;-61
2023/06/24 06:05:18;;;;;;;8.75;6.97;;;18.80;99.90;;;;;;5068546;28;20129;-60
2023/06/24 06:07:45;;;;;;;8.95;7.35;;;18.80;99.90;;;;;;5069281;28;20041;-61
2023/06/24 06:10:15;;;;;;;10.85;7.35;;;18.80;99.90;;;;;;5069442;28;20101;-60
2023/06/24 06:12:42;;;;;;;8.13;6.18;;;18.80;99.90;;;;;;5069428;28;20123;-60
2023/06/24 06:15:09;;;;;;;10.98;6.85;;;18.80;99.90;;;;;;5069322;28;20087;-59
2023/06/24 06:17:36;;;;;;;11.18;6.85;;;18.90;99.90;;;;;;5068736;28;20044;-59
2023/06/24 06:20:03;;;;;;;11.85;6.68;;;18.90;99.90;;;;;;5051583;28;20110;-59
2023/06/24 06:22:32;;;;;;;10.52;6.38;;;19.00;99.90;;;;;;5068162;28;20055;-60
2023/06/24 06:24:58;;;;;;;9.27;7.65;;;19.10;99.90;;;;;;5067911;28;20040;-63
2023/06/24 06:27:25;;;;;;;8.88;6.13;;;19.20;99.90;;;;;;5068144;28;20399;-59
2023/06/24 06:29:52;;;;;;;9.68;6.50;;;19.30;99.90;;;;;;5065224;28;20492;-60
2023/06/24 06:32:19;;;;;;;10.98;6.90;;;19.30;99.90;;;;;;5068619;28;20131;-60
2023/06/24 06:34:46;;;;;;;10.55;6.38;;;19.40;99.90;;;;;;5068032;28;20044;-59
2023/06/24 06:37:12;;;;;;;7.65;6.18;;;19.50;99.90;;;;;;5051442;28;20075;-59
2023/06/24 06:39:39;;;;;;;8.63;5.78;;;19.60;99.90;;;;;;5068845;28;20053;-59
2023/06/24 06:42:06;;;;;;;10.32;6.07;;;19.70;99.90;;;;;;5069146;28;20526;-60
2023/06/24 06:44:33;;;;;;;9.00;6.13;;;19.80;99.90;;;;;;5068108;28;20056;-60
2023/06/24 06:47:00;;;;;;;7.82;5.53;;;19.90;99.90;;;;;;5068781;28;20056;-59
2023/06/24 06:49:27;;;;;;;7.00;5.35;;;20.10;99.90;;;;;;5068030;28;20499;-60
2023/06/24 06:51:54;;;;;;;6.45;5.00;;;20.30;99.90;;;;;;5068729;28;20282;-61
2023/06/24 06:54:21;;;;;;;6.35;5.28;;;20.50;99.90;;;;;;5067474;28;20036;-60
2023/06/24 06:56:48;;;;;;;8.38;4.95;;;20.70;99.90;;;;;;4716581;28;10000107;-61
2023/06/24 06:59:15;;;;;;;6.97;3.85;;;20.90;99.90;;;;;;5065333;28;20056;-60
2023/06/24 07:01:42;;;;;;;4.65;4.05;;;21.10;99.90;;;;;;5065837;28;20059;-60
2023/06/24 07:04:09;;;;;;;8.63;3.60;;;21.40;99.90;;;;;;5048115;28;20048;-63
2023/06/24 07:06:36;;;;;;;6.13;3.83;;;21.50;99.90;;;;;;5066212;28;20044;-60
2023/06/24 07:09:02;;;;;;;4.50;3.28;;;21.50;99.90;;;;;;5062727;28;20046;-59
2023/06/24 07:11:29;;;;;;;11.82;4.18;;;21.50;99.90;;;;;;5066089;28;20585;-60
2023/06/24 07:13:56;;;;;;;7.78;4.40;;;21.30;99.90;;;;;;5065291;28;20044;-60
2023/06/24 07:16:23;;;;;;;9.68;3.45;;;21.20;99.90;;;;;;5065090;28;20053;-60
2023/06/24 07:18:50;;;;;;;7.38;3.92;;;21.30;99.90;;;;;;5065504;28;20045;-59
2023/06/24 07:21:17;;;;;;;8.70;4.22;;;21.50;99.90;;;;;;5047137;28;20044;-61
2023/06/24 07:23:44;;;;;;;7.25;4.03;;;21.60;99.90;;;;;;5063603;28;20044;-60
2023/06/24 07:26:11;;;;;;;5.55;4.32;;;21.70;99.90;;;;;;5058853;28;20045;-60
2023/06/24 07:28:37;;;;;;;6.03;4.28;;;21.70;99.90;;;;;;5065064;28;20044;-61
2023/06/24 07:31:04;;;;;;;8.43;4.93;;;21.70;99.90;;;;;;5064362;28;20056;-61
2023/06/24 07:33:31;;;;;;;8.75;4.60;;;21.60;99.90;;;;;;5064242;28;20044;-60
2023/06/24 07:35:58;;;;;;;10.27;5.00;;;21.40;99.90;;;;;;5064299;28;20549;-59
2023/06/24 07:38:25;;;;;;;7.72;4.93;;;21.30;99.90;;;;;;5070280;28;20262;-60
2023/06/24 07:40:52;;;;;;;7.38;5.07;;;21.40;99.90;;;;;;5080120;28;20534;-60
2023/06/24 07:43:18;;;;;;;6.82;5.05;;;21.50;99.90;;;;;;5065644;28;20048;-59
2023/06/24 07:45:46;;;;;;;9.82;5.43;;;21.70;99.90;;;;;;5064530;28;20063;-60
2023/06/24 07:48:13;;;;;;;12.23;5.57;;;21.70;99.90;;;;;;5047214;28;20047;-60
2023/06/24 07:50:39;;;;;;;5.50;4.65;;;21.90;99.90;;;;;;5065097;28;20079;-60
2023/06/24 07:53:06;;;;;;;7.38;5.35;;;21.90;99.90;;;;;;5062151;28;20040;-60
2023/06/24 07:55:33;;;;;;;9.32;4.93;;;22.00;99.90;;;;;;5047344;28;20048;-60
2023/06/24 07:58:02;;;;;;;8.68;4.72;;;22.10;99.90;;;;;;5064324;28;20587;-60
2023/06/24 08:00:29;;;;;;;7.35;5.35;;;22.20;99.90;;;;;;5064736;28;20049;-60
2023/06/24 08:02:57;;;;;;;8.45;4.55;;;22.20;99.90;;;;;;5046890;28;20056;-61
2023/06/24 08:05:24;;;;;;;7.05;4.45;;;22.30;99.90;;;;;;5064528;28;20049;-61
2023/06/24 08:07:51;;;;;;;9.85;5.63;;;22.40;99.90;;;;;;5046866;28;20052;-61
2023/06/24 08:10:18;;;;;;;6.35;4.63;;;22.50;99.90;;;;;;5065117;28;20126;-60
2023/06/24 08:12:45;;;;;;;8.95;5.93;;;22.40;99.90;;;;;;5064968;28;20048;-62
2023/06/24 08:15:12;;;;;;;8.32;4.75;;;22.40;99.90;;;;;;5064893;28;20053;-61
2023/06/24 08:17:40;;;;;;;12.05;5.40;;;22.50;99.90;;;;;;5063910;28;20056;-61
2023/06/24 08:20:07;;;;;;;7.78;4.97;;;22.60;99.90;;;;;;5061283;28;20052;-60
2023/06/24 08:22:34;;;;;;;6.53;4.45;;;22.80;99.90;;;;;;5060421;28;20072;-61
2023/06/24 08:25:00;;;;;;;7.85;3.55;;;22.80;99.90;;;;;;5063312;28;20680;-59
2023/06/24 08:27:27;;;;;;;7.03;4.05;;;22.70;99.90;;;;;;5061664;28;20400;-61
2023/06/24 08:29:54;;;;;;;7.57;4.50;;;22.70;99.90;;;;;;5063035;28;20296;-60
2023/06/24 08:32:21;;;;;;;5.32;3.78;;;22.70;99.90;;;;;;5044818;28;20129;-60
2023/06/24 08:34:48;;;;;;;7.47;3.95;;;22.70;99.90;;;;;;5059529;28;20036;-60
2023/06/24 08:37:15;;;;;;;8.73;4.22;;;22.80;99.90;;;;;;5063561;28;20695;-62
2023/06/24 08:39:42;;;;;;;13.07;6.00;;;22.90;99.90;;;;;;5044412;28;20050;-61
2023/06/24 08:42:10;;;;;;;6.80;5.13;;;23.00;99.90;;;;;;5064018;28;20361;-61
2023/06/24 08:44:37;;;;;;;7.30;5.10;;;23.30;99.90;;;;;;5063868;28;20044;-60
2023/06/24 08:47:04;;;;;;;7.60;4.82;;;23.40;99.90;;;;;;5063677;28;20057;-61
2023/06/24 08:49:31;;;;;;;7.25;4.70;;;23.60;99.90;;;;;;5046065;28;20048;-60
2023/06/24 08:52:03;;;;;;;7.32;5.22;;;23.60;99.90;;;;;;5066380;28;20166;-60
2023/06/24 08:54:31;;;;;;;7.07;3.83;;;23.60;99.90;;;;;;5065835;28;20051;-60
2023/06/24 08:57:00;;;;;;;5.45;3.88;;;23.60;99.90;;;;;;5065620;28;20052;-60
2023/06/24 08:59:27;;;;;;;6.80;3.67;;;23.60;99.90;;;;;;5047993;28;20059;-60
2023/06/24 09:01:53;;;;;;;8.95;3.80;;;23.50;99.90;;;;;;5047812;28;20075;-59
2023/06/24 09:04:20;;;;;;;7.65;3.80;;;23.60;99.90;;;;;;5064859;28;20119;-60
2023/06/24 09:06:47;;;;;;;10.68;4.22;;;23.80;99.90;;;;;;5060193;28;20052;-59
2023/06/24 09:09:20;;;;;;;7.53;4.50;;;23.90;99.90;;;;;;5067484;28;20041;-60
2023/06/24 09:11:57;;;;;;;;;;;23.90;99.90;;;;;;5068187;28;20052;-60
2023/06/24 09:14:24;;;;;;;4.90;3.47;;;23.80;99.90;;;;;;5066181;28;19924;-60
2023/06/24 09:16:55;;;;;;;6.60;3.50;;;23.70;99.90;;;;;;5053045;28;20037;-60
2023/06/24 09:19:23;;;;;;;8.65;3.78;;;23.70;99.90;;;;;;5067645;28;20056;-60
2023/06/24 09:21:52;;;;;;;7.30;3.95;;;23.90;99.90;;;;;;5067973;28;20764;-60
2023/06/24 09:24:19;;;;;;;35.83;7.20;;;23.90;99.90;;;;;;5049110;28;20048;-59
2023/06/24 09:26:46;;;;;;;14.60;4.18;;;24.00;99.90;;;;;;5067041;28;20507;-60
2023/06/24 09:29:14;;;;;;;6.90;4.00;;;24.00;99.90;;;;;;5062836;28;20063;-60
2023/06/24 09:31:52;;;;;;;8.75;4.20;;;24.00;99.90;;;;;;5066910;28;20052;-60
2023/06/24 09:34:19;;;;;;;7.72;4.75;;;24.00;99.90;;;;;;5064454;28;20708;-60
2023/06/24 09:36:52;;;;;;;8.52;3.85;;;24.20;99.90;;;;;;5067047;28;20052;-60
2023/06/24 09:39:22;;;;;;;;;;;24.20;99.90;;;;;;5067932;28;20463;-60
2023/06/24 09:42:01;;;;;;;8.32;3.80;;;24.30;99.90;;;;;;5067080;28;19943;-60
2023/06/24 09:44:28;;;;;;;7.72;4.20;;;24.30;99.90;;;;;;5066998;28;20101;-59
2023/06/24 09:46:58;;;;;;;5.97;3.80;;;24.40;99.90;;;;;;5034718;28;20053;-59
2023/06/24 09:49:25;;;;;;;7.40;4.45;;;24.60;99.90;;;;;;5049321;28;20048;-60
2023/06/24 09:51:57;;;;;;;6.53;3.08;;;24.70;99.90;;;;;;5066192;28;20554;-60
2023/06/24 09:54:26;;;;;;;8.20;3.50;;;24.80;99.90;;;;;;5066601;28;20563;-61
2023/06/24 09:57:01;;;;;;;7.68;3.05;;;25.00;99.90;;;;;;5064593;28;20128;-61
2023/06/24 09:59:28;;;;;;;5.40;3.45;;;25.10;99.90;;;;;;5066026;28;20048;-60
2023/06/24 10:01:55;;;;;;;5.65;2.80;;;24.90;99.90;;;;;;5045066;28;20798;-59
2023/06/24 10:04:22;;;;;;;9.88;3.35;;;24.80;99.90;;;;;;5048045;28;20045;-60
2023/06/24 10:06:49;;;;;;;4.75;2.85;;;24.90;99.90;;;;;;5065642;28;20063;-60
2023/06/24 10:09:17;;;;;;;8.95;3.20;;;24.90;99.90;;;;;;5048292;28;20143;-60
2023/06/24 10:11:45;;;;;;;4.20;2.58;;;25.20;99.90;;;;;;5039458;28;20422;-60
2023/06/24 10:14:13;;;;;;;5.13;2.55;;;25.40;99.90;;;;;;5047000;28;20047;-61
2023/06/24 10:16:41;;;;;;;4.32;2.75;;;25.70;99.90;;;;;;5065781;28;20066;-61
2023/06/24 10:19:08;;;;;;;4.18;2.83;;;26.20;99.90;;;;;;5066884;28;20054;-60
2023/06/24 10:21:51;;;;;;;4.55;2.42;;;26.70;99.90;;;;;;5066298;28;20056;-61
2023/06/24 10:24:35;;;;;;;2.63;2.15;;;26.90;99.90;;;;;;5065847;28;20075;-60
2023/06/24 10:27:03;;;;;;;6.13;2.70;;;26.80;99.90;;;;;;5064174;28;20102;-61
2023/06/24 10:29:37;;;;;;;2.50;2.20;;;26.50;99.90;;;;;;5047771;28;20045;-60
2023/06/24 10:32:08;;;;;;;5.60;2.60;;;26.40;99.90;;;;;;5065600;28;20124;-60
2023/06/24 10:34:38;;;;;;;4.28;2.20;;;26.40;99.90;;;;;;5063114;28;20056;-59
2023/06/24 10:37:25;;;;;;;5.03;2.10;;;26.60;99.90;;;;;;5065719;28;20550;-60
2023/06/24 10:39:52;;;;;;;2.45;1.73;;;27.10;99.90;;;;;;5065790;28;20135;-61
2023/06/24 10:42:25;;;;;;;11.07;2.67;;;27.00;99.90;;;;;;5066039;28;20055;-61
2023/06/24 10:44:56;;;;;;;2.90;2.55;;;26.90;99.90;;;;;;5066208;28;20037;-61
2023/06/24 10:47:23;;;;;;;4.05;2.50;;;26.80;99.90;;;;;;5065730;28;20048;-61
2023/06/24 10:49:50;;;;;;;4.72;2.60;;;26.70;99.90;;;;;;5066092;28;20507;-60
2023/06/24 10:52:21;;;;;;;3.08;2.53;;;26.80;99.90;;;;;;5065883;28;20230;-60
2023/06/24 10:54:49;;;;;;;4.05;2.60;;;26.80;99.90;;;;;;5065903;28;20050;-60
2023/06/24 10:57:16;;;;;;;4.03;2.50;;;26.80;99.90;;;;;;5065756;28;20071;-60
2023/06/24 10:59:46;;;;;;;3.50;1.70;;;26.80;99.90;;;;;;5031352;28;20466;-61
2023/06/24 11:02:17;;;;;;;3.08;2.10;;;26.70;99.90;;;;;;5066086;28;20055;-60
2023/06/24 11:04:57;;;;;;;5.50;2.35;;;26.70;99.90;;;;;;5066894;28;20072;-60
2023/06/24 11:07:44;;;;;;;14.82;3.75;;;26.70;99.90;;;;;;5050916;28;20057;-60
2023/06/24 11:10:12;;;;;;;3.85;2.45;;;26.80;99.90;;;;;;5067731;28;20043;-62
2023/06/24 11:12:40;;;;;;;5.10;2.30;;;26.80;99.90;;;;;;5057371;28;20076;-60
2023/06/24 11:15:08;;;;;;;2.85;2.30;;;26.80;99.90;;;;;;5067006;28;20040;-60
2023/06/24 11:17:35;;;;;;;4.13;2.20;;;26.80;99.90;;;;;;5066960;28;20056;-60
2023/06/24 11:22:39;;;;;;;4.32;1.88;;;26.80;99.90;;;;;;3441069;22;20071;-60
2023/06/24 11:25:06;;;;;;;2.65;1.98;;;26.90;99.90;;;;;;5043295;28;20052;-60
2023/06/24 11:27:33;;;;;;;4.05;2.08;;;27.20;99.90;;;;;;5066579;28;20143;-60
2023/06/24 11:30:02;;;;;;;5.90;2.38;;;27.20;99.90;;;;;;4711782;28;10000278;-60
2023/06/24 11:32:38;;;;;;;2.55;1.48;;;27.20;99.90;;;;;;5043337;28;20122;-61
2023/06/24 11:35:07;;;;;;;1.70;1.42;;;27.00;99.70;;;;;;5061292;28;20051;-61
2023/06/24 11:37:34;;;;;;;4.88;1.67;;;27.20;99.90;;;;;;5046303;28;20056;-60
2023/06/24 11:40:05;;;;;;;3.25;1.60;;;27.20;99.90;;;;;;5046046;28;20094;-61
2023/06/24 11:42:33;;;;;;;4.20;1.77;;;27.20;99.50;;;;;;5059218;28;20065;-60
2023/06/24 11:45:01;;;;;;;3.30;1.65;;;27.20;99.80;;;;;;5056456;28;20044;-61
2023/06/24 11:47:32;;;;;;;2.63;1.92;;;27.00;99.80;;;;;;5061810;28;20377;-60
2023/06/24 11:50:00;;;;;;;4.95;1.77;;;27.10;99.80;;;;;;5064411;28;20048;-60
2023/06/24 11:52:33;;;;;;;5.22;1.92;;;27.10;99.90;;;;;;5063642;28;20549;-60
2023/06/24 11:55:00;;;;;;;3.38;2.10;;;27.20;99.90;;;;;;5064275;28;20048;-61
2023/06/24 11:57:48;;;;;;;3.72;2.00;;;27.20;99.90;;;;;;5064694;28;20076;-60
2023/06/24 12:00:15;;;;;;;4.13;2.40;;;27.40;99.90;;;;;;5064293;28;20329;-60
2023/06/24 12:02:42;;;;;;;4.32;2.35;;;27.50;99.90;;;;;;5064256;28;20060;-59
2023/06/24 12:05:09;;;;;;;3.03;1.95;;;27.70;99.90;;;;;;5063358;28;20236;-60
2023/06/24 12:07:36;;;;;;;3.13;2.20;;;27.80;99.80;;;;;;5063811;28;20404;-60
2023/06/24 12:10:03;;;;;;;2.50;1.85;;;27.90;99.90;;;;;;5063921;28;20068;-60
2023/06/24 12:12:30;;;;;;;3.28;2.00;;;27.90;99.40;;;;;;5064309;28;20052;-64
2023/06/24 12:14:57;;;;;;;3.92;1.90;;;27.80;99.30;;;;;;5064520;28;20048;-60
2023/06/24 12:17:23;;;;;;;3.38;1.67;;;27.70;99.10;;;;;;5063976;28;20170;-60
2023/06/24 12:19:50;;;;;;;5.38;2.10;;;27.90;98.80;;;;;;5046143;28;20102;-60
2023/06/24 12:22:17;;;;;;;6.03;2.65;;;27.90;98.50;;;;;;5063505;28;20499;-60
2023/06/24 12:24:44;;;;;;;4.47;1.90;;;28.00;99.10;;;;;;5062652;28;20487;-60
2023/06/24 12:27:11;;;;;;;4.70;1.98;;;28.00;98.90;;;;;;5066655;28;20044;-60
2023/06/24 12:29:38;;;;;;;4.45;2.35;;;28.00;99.00;;;;;;5068353;28;20282;-59
2023/06/24 12:32:05;;;;;;;5.13;2.45;;;28.10;98.80;;;;;;5067702;28;20052;-60
2023/06/24 12:34:32;;;;;;;2.42;1.80;;;28.10;98.90;;;;;;5067857;28;20542;-60
2023/06/24 12:36:59;;;;;;;6.40;2.13;;;27.90;98.10;;;;;;5068251;28;20049;-60
2023/06/24 12:39:26;;;;;;;3.13;2.22;;;27.90;97.90;;;;;;5068120;28;20056;-61
2023/06/24 12:41:52;;;;;;;4.00;2.03;;;27.70;98.30;;;;;;5065584;28;20051;-59
2023/06/24 12:44:19;;;;;;;3.63;2.15;;;27.80;98.20;;;;;;5066967;28;20056;-60
2023/06/24 12:46:46;;;;;;;3.58;2.10;;;27.80;98.60;;;;;;5063805;28;20048;-61
2023/06/24 12:49:13;;;;;;;2.15;1.75;;;27.90;98.70;;;;;;5058514;28;20056;-60
2023/06/24 12:51:40;;;;;;;5.32;2.25;;;27.80;98.20;;;;;;5051470;28;20053;-61